Time;durP1;ratioP1;P1;durP2;ratioP2;P2;SDS_P1;SDS_P2;PMS_P1;PMS_P2;Temp;Humidity;BMP_temperature;BMP_pressure;BME280_temperature;BME280_humidity;BME280_pressure;Samples;Min_cycle;Max_cycle;Signal;HPM_P1;HPM_P2
2024/01/14 17:25:11;;;;;;;13.43;7.78;;;;;;;;;;5057001;24;20063;-67
2024/01/14 17:27:44;;;;;;;14.48;8.40;;;;;;;;;;4803351;29;20061;-67
2024/01/14 17:30:13;;;;;;;14.70;8.05;;;;;;;;;;4803439;29;20043;-66
2024/01/14 17:32:56;;;;;;;16.70;8.32;;;;;;;;;;4789307;30;20039;-67
2024/01/14 17:35:41;;;;;;;18.50;8.20;;;;;;;;;;4773072;30;20408;-67
2024/01/14 17:38:15;;;;;;;16.15;7.82;;;;;;;;;;4787831;29;20390;-66
2024/01/14 17:40:43;;;;;;;14.05;7.75;;;;;;;;;;4803186;29;20071;-66
2024/01/14 17:43:11;;;;;;;13.88;7.80;;;;;;;;;;4788215;30;20147;-67
2024/01/14 17:45:41;;;;;;;16.27;8.70;;;;;;;;;;4789328;30;20048;-66
2024/01/14 17:48:25;;;;;;;13.93;7.45;;;;;;;;;;4789667;30;20061;-67
2024/01/14 17:50:54;;;;;;;14.73;7.57;;;;;;;;;;4789234;30;20138;-67
2024/01/14 17:53:49;;;;;;;13.57;7.05;;;;;;;;;;4787215;30;20051;-68
2024/01/14 17:56:46;;;;;;;18.40;7.93;;;;;;;;;;4744161;30;20061;-67
2024/01/14 17:59:34;;;;;;;17.92;8.48;;;;;;;;;;4744691;30;20064;-67
2024/01/14 18:10:14;;;;;;;13.50;7.25;;;;;;;;;;4638687;30;20066;-67
2024/01/14 18:12:57;;;;;;;13.35;7.72;;;;;;;;;;4670408;30;20141;-67
2024/01/14 18:15:39;;;;;;;12.90;7.40;;;;;;;;;;4697698;30;20148;-68
2024/01/14 18:18:12;;;;;;;14.07;7.30;;;;;;;;;;4778316;29;20051;-67
2024/01/14 18:20:41;;;;;;;14.57;7.97;;;;;;;;;;4788901;29;20039;-66
2024/01/14 18:23:14;;;;;;;13.60;6.95;;;;;;;;;;4788775;29;20429;-68
2024/01/14 18:32:29;;;;;;;15.55;7.85;;;;;;;;;;4788321;29;20100;-66
2024/01/14 18:35:06;;;;;;;13.07;7.85;;;;;;;;;;4772166;30;20055;-66
2024/01/14 18:37:38;;;;;;;16.50;7.60;;;;;;;;;;4788559;29;20122;-66
2024/01/14 18:40:12;;;;;;;15.27;7.68;;;;;;;;;;4743148;30;20430;-67
2024/01/14 18:42:40;;;;;;;14.60;7.20;;;;;;;;;;4801956;29;20047;-66
2024/01/14 18:45:11;;;;;;;14.38;7.63;;;;;;;;;;4788287;30;20126;-67
2024/01/14 18:47:41;;;;;;;17.05;8.13;;;;;;;;;;4788331;29;20169;-66
2024/01/14 18:50:39;;;;;;;;;;;;;;;;;;;;;
2024/01/14 18:53:12;;;;;;;15.10;8.38;;;;;;;;;;4787002;29;20043;-65
2024/01/14 18:55:47;;;;;;;14.90;7.40;;;;;;;;;;4801762;29;20055;-68
2024/01/14 18:58:51;;;;;;;16.45;7.93;;;;;;;;;;4785084;30;20047;-66
2024/01/14 19:01:27;;;;;;;13.20;8.15;;;;;;;;;;4757825;29;20051;-68
2024/01/14 19:04:09;;;;;;;15.43;8.10;;;;;;;;;;4786343;29;20051;-66
2024/01/14 19:06:43;;;;;;;13.73;7.57;;;;;;;;;;4787493;29;20047;-68
2024/01/14 19:09:11;;;;;;;19.00;8.23;;;;;;;;;;4788065;29;20509;-67
2024/01/14 19:11:41;;;;;;;14.55;8.30;;;;;;;;;;4786943;29;20048;-66
2024/01/14 19:14:18;;;;;;;13.18;7.78;;;;;;;;;;4792112;29;20059;-69
2024/01/14 19:16:52;;;;;;;18.33;9.00;;;;;;;;;;4770710;30;20100;-68
2024/01/14 19:20:05;;;;;;;14.15;7.95;;;;;;;;;;4786332;29;20059;-66
2024/01/14 19:22:53;;;;;;;14.25;7.55;;;;;;;;;;4764488;30;20059;-66
2024/01/14 19:25:24;;;;;;;14.20;7.32;;;;;;;;;;4798813;29;20525;-67
2024/01/14 19:27:51;;;;;;;15.73;7.80;;;;;;;;;;4786749;29;20043;-69
2024/01/14 19:30:25;;;;;;;14.25;7.72;;;;;;;;;;4789919;29;20043;-66
2024/01/14 19:33:04;;;;;;;13.60;7.43;;;;;;;;;;4779269;29;20090;-66
2024/01/14 19:38:46;;;;;;;12.95;7.55;;;;;;;;;;4774606;30;20459;-67
2024/01/14 19:41:31;;;;;;;13.55;7.38;;;;;;;;;;4764573;30;20240;-68
2024/01/14 19:43:59;;;;;;;14.07;7.38;;;;;;;;;;4771211;30;20492;-65
2024/01/14 19:46:28;;;;;;;12.55;6.90;;;;;;;;;;4796562;29;20062;-66
2024/01/14 19:48:56;;;;;;;13.93;6.60;;;;;;;;;;4787031;29;20043;-67
2024/01/14 19:51:33;;;;;;;11.13;6.78;;;;;;;;;;4772618;30;20047;-68
2024/01/14 19:54:03;;;;;;;12.80;7.13;;;;;;;;;;4771207;30;20043;-66
2024/01/14 19:57:04;;;;;;;12.50;6.55;;;;;;;;;;4787299;29;20051;-66
2024/01/14 19:59:45;;;;;;;13.55;7.30;;;;;;;;;;4787207;30;20058;-67
2024/01/14 20:02:27;;;;;;;14.45;6.95;;;;;;;;;;4767894;30;20052;-68
2024/01/14 20:05:26;;;;;;;11.10;6.43;;;;;;;;;;4787181;29;20080;-67
2024/01/14 20:08:26;;;;;;;13.15;6.88;;;;;;;;;;4773786;30;20485;-67
2024/01/14 20:11:13;;;;;;;14.98;6.82;;;;;;;;;;4776617;29;20069;-67
2024/01/14 20:13:41;;;;;;;11.00;6.38;;;;;;;;;;4787190;29;20039;-67
2024/01/14 20:16:11;;;;;;;11.95;6.22;;;;;;;;;;4771124;30;20405;-66
2024/01/14 20:18:39;;;;;;;11.20;6.50;;;;;;;;;;4787166;29;20067;-67
2024/01/14 20:21:09;;;;;;;11.20;6.30;;;;;;;;;;4787161;29;20039;-66
2024/01/14 20:23:38;;;;;;;11.85;6.18;;;;;;;;;;4786803;29;20443;-66
2024/01/14 20:26:08;;;;;;;11.10;6.47;;;;;;;;;;4786115;29;20079;-66
2024/01/14 20:28:36;;;;;;;13.25;6.93;;;;;;;;;;4786864;29;20508;-66
2024/01/14 20:31:04;;;;;;;13.02;6.63;;;;;;;;;;4787130;29;20047;-67
2024/01/14 20:33:34;;;;;;;13.07;7.18;;;;;;;;;;4786814;30;20497;-64
2024/01/14 20:36:05;;;;;;;12.05;7.03;;;;;;;;;;4787012;30;20089;-67
2024/01/14 20:38:33;;;;;;;12.25;6.88;;;;;;;;;;4786985;29;20049;-66
2024/01/14 20:41:04;;;;;;;15.25;7.80;;;;;;;;;;4784500;30;20140;-65
2024/01/14 20:43:38;;;;;;;14.85;7.82;;;;;;;;;;4785897;30;20051;-66
2024/01/14 20:46:06;;;;;;;13.52;7.47;;;;;;;;;;4787005;30;20063;-66
2024/01/14 20:48:34;;;;;;;14.02;7.38;;;;;;;;;;4787219;30;20405;-66
2024/01/14 20:51:05;;;;;;;15.20;7.57;;;;;;;;;;4787090;30;20493;-67
2024/01/14 20:53:35;;;;;;;13.00;7.20;;;;;;;;;;4800792;29;20140;-66
2024/01/14 20:56:05;;;;;;;11.90;6.82;;;;;;;;;;4787067;30;20051;-66
2024/01/14 20:58:33;;;;;;;16.10;7.28;;;;;;;;;;4800772;29;20124;-68
2024/01/14 21:01:08;;;;;;;11.48;6.60;;;;;;;;;;4786932;30;20130;-66
2024/01/14 21:03:38;;;;;;;12.77;7.00;;;;;;;;;;4786049;30;20051;-67
2024/01/14 21:06:07;;;;;;;13.48;6.88;;;;;;;;;;4800749;29;20082;-66
2024/01/14 21:08:41;;;;;;;14.30;7.00;;;;;;;;;;4787176;30;20055;-67
2024/01/14 21:11:14;;;;;;;13.25;7.93;;;;;;;;;;4785881;30;20051;-66
2024/01/14 21:13:42;;;;;;;14.43;6.80;;;;;;;;;;4800721;29;20047;-66
2024/01/14 21:16:13;;;;;;;12.93;6.43;;;;;;;;;;4790499;30;20044;-66
2024/01/14 21:18:41;;;;;;;15.45;7.50;;;;;;;;;;4773871;30;20051;-67
2024/01/14 21:21:12;;;;;;;12.40;6.70;;;;;;;;;;4790076;30;20081;-67
2024/01/14 21:23:43;;;;;;;13.90;6.53;;;;;;;;;;4803726;29;20462;-67
2024/01/14 21:26:11;;;;;;;13.93;6.88;;;;;;;;;;4789770;30;20112;-67
2024/01/14 21:28:39;;;;;;;11.27;6.68;;;;;;;;;;4789944;30;20134;-67
2024/01/14 21:31:07;;;;;;;11.65;6.43;;;;;;;;;;4788968;30;20051;-67
2024/01/14 21:33:35;;;;;;;13.48;7.07;;;;;;;;;;4789863;30;20408;-66
2024/01/14 21:36:04;;;;;;;13.55;6.72;;;;;;;;;;4803733;29;20134;-66
2024/01/14 21:38:32;;;;;;;11.65;6.47;;;;;;;;;;4789897;30;20461;-67
2024/01/14 21:40:59;;;;;;;10.80;6.07;;;;;;;;;;4789993;30;20420;-66
2024/01/14 21:43:28;;;;;;;13.80;7.03;;;;;;;;;;4773630;30;20043;-65
2024/01/14 21:45:56;;;;;;;11.48;5.93;;;;;;;;;;4789744;30;20052;-66
2024/01/14 21:48:26;;;;;;;14.98;6.95;;;;;;;;;;4789771;30;20405;-66
2024/01/14 21:50:56;;;;;;;11.57;6.05;;;;;;;;;;4789577;30;20521;-66
2024/01/14 21:53:24;;;;;;;10.63;6.50;;;;;;;;;;4803739;29;20408;-66
2024/01/14 21:55:53;;;;;;;10.50;6.15;;;;;;;;;;4788364;30;20130;-67
2024/01/14 21:58:21;;;;;;;10.75;5.72;;;;;;;;;;4787973;30;20061;-67
2024/01/14 22:00:49;;;;;;;10.00;6.03;;;;;;;;;;4803312;29;20414;-66
2024/01/14 22:03:16;;;;;;;11.15;6.03;;;;;;;;;;4788159;30;20052;-66
2024/01/14 22:05:44;;;;;;;15.68;6.20;;;;;;;;;;4788167;30;20166;-66
2024/01/14 22:08:12;;;;;;;11.23;6.13;;;;;;;;;;4789321;30;20047;-66
2024/01/14 22:10:39;;;;;;;12.68;6.15;;;;;;;;;;4789302;30;20085;-66
2024/01/14 22:13:07;;;;;;;11.88;6.05;;;;;;;;;;4788431;29;20413;-66
2024/01/14 22:15:35;;;;;;;11.25;5.80;;;;;;;;;;4802847;29;20050;-66
2024/01/14 22:18:03;;;;;;;10.60;5.80;;;;;;;;;;4802836;29;20492;-66
2024/01/14 22:20:33;;;;;;;10.45;4.80;;;;;;;;;;4789239;30;20039;-66
2024/01/14 22:23:01;;;;;;;9.48;5.95;;;;;;;;;;4802863;29;20050;-67
2024/01/14 22:25:28;;;;;;;11.38;6.07;;;;;;;;;;4788316;29;20061;-66
2024/01/14 22:27:56;;;;;;;13.65;5.90;;;;;;;;;;4788505;30;20136;-66
2024/01/14 22:30:23;;;;;;;10.32;5.35;;;;;;;;;;4788840;30;20039;-67
2024/01/14 22:32:51;;;;;;;13.02;6.15;;;;;;;;;;4787626;30;20055;-66
2024/01/14 22:35:19;;;;;;;12.25;5.93;;;;;;;;;;4788775;30;20497;-66
2024/01/14 22:37:47;;;;;;;11.18;6.07;;;;;;;;;;4788750;30;20402;-66
2024/01/14 22:40:14;;;;;;;15.07;6.40;;;;;;;;;;4788584;30;20049;-66
2024/01/14 22:42:42;;;;;;;11.43;6.43;;;;;;;;;;4788715;30;20047;-66
2024/01/14 22:45:09;;;;;;;13.15;6.07;;;;;;;;;;4788552;30;20055;-66
2024/01/14 22:47:37;;;;;;;12.32;6.07;;;;;;;;;;4802491;29;20058;-66
2024/01/14 22:50:05;;;;;;;11.00;6.10;;;;;;;;;;4788481;30;20047;-66
2024/01/14 22:52:32;;;;;;;12.20;5.70;;;;;;;;;;4787604;30;20441;-66
2024/01/14 22:55:00;;;;;;;10.95;6.00;;;;;;;;;;4802122;29;20409;-66
2024/01/14 22:57:28;;;;;;;9.18;5.18;;;;;;;;;;4788430;29;20043;-66
2024/01/14 22:59:55;;;;;;;10.27;5.78;;;;;;;;;;4788822;30;20408;-66
2024/01/14 23:02:23;;;;;;;10.60;5.60;;;;;;;;;;4788444;30;20155;-66
2024/01/14 23:04:50;;;;;;;10.32;5.30;;;;;;;;;;4788400;30;20057;-65
2024/01/14 23:07:18;;;;;;;8.95;5.45;;;;;;;;;;4788138;30;20048;-66
2024/01/14 23:09:46;;;;;;;9.57;5.57;;;;;;;;;;4788336;30;20051;-66
2024/01/14 23:12:14;;;;;;;11.73;6.13;;;;;;;;;;4786943;30;20058;-66
2024/01/14 23:14:41;;;;;;;11.13;6.35;;;;;;;;;;4786795;30;20108;-66
2024/01/14 23:17:09;;;;;;;13.40;7.03;;;;;;;;;;4788072;30;20142;-66
2024/01/14 23:19:36;;;;;;;12.30;6.43;;;;;;;;;;4801928;29;20539;-66
2024/01/14 23:22:04;;;;;;;12.85;6.57;;;;;;;;;;4788142;30;20416;-67
2024/01/14 23:24:32;;;;;;;10.48;6.13;;;;;;;;;;4786601;30;20557;-66
2024/01/14 23:27:00;;;;;;;10.70;6.13;;;;;;;;;;4787860;30;20124;-65
2024/01/14 23:29:27;;;;;;;14.40;6.90;;;;;;;;;;4787882;30;20082;-67
2024/01/14 23:31:55;;;;;;;10.98;5.88;;;;;;;;;;4801562;29;20405;-66
2024/01/14 23:34:22;;;;;;;10.52;5.60;;;;;;;;;;4787834;30;20092;-66
2024/01/14 23:36:50;;;;;;;10.60;5.60;;;;;;;;;;4787745;29;20481;-66
2024/01/14 23:39:18;;;;;;;12.35;6.03;;;;;;;;;;4801662;29;20074;-66
2024/01/14 23:41:45;;;;;;;9.48;5.63;;;;;;;;;;4787843;30;20055;-66
2024/01/14 23:44:13;;;;;;;9.38;5.63;;;;;;;;;;4787752;30;20049;-66
2024/01/14 23:46:41;;;;;;;9.93;5.57;;;;;;;;;;4787675;29;20047;-66
2024/01/14 23:49:08;;;;;;;11.00;5.80;;;;;;;;;;4801642;29;20486;-66
2024/01/14 23:51:36;;;;;;;9.75;5.38;;;;;;;;;;4787552;30;20054;-66
2024/01/14 23:54:03;;;;;;;9.20;5.45;;;;;;;;;;4787614;30;20405;-66
2024/01/14 23:56:37;;;;;;;10.95;5.50;;;;;;;;;;4787608;30;20046;-66
2024/01/14 23:59:05;;;;;;;8.77;5.00;;;;;;;;;;4801404;29;20472;-66
